createdAt,value
2023-05-02T00:00:23.446Z,38.21
2023-05-02T00:02:53.990Z,38.03
2023-05-02T00:05:25.998Z,38.08
2023-05-02T00:07:57.279Z,37.52
2023-05-02T00:10:27.958Z,37.91
2023-05-02T00:12:58.424Z,38.91
2023-05-02T00:15:29.536Z,38.20
2023-05-02T00:18:00.597Z,38.20
2023-05-02T00:20:31.145Z,38.63
2023-05-02T00:23:02.504Z,37.99
2023-05-02T00:25:33.162Z,37.98
2023-05-02T00:28:03.784Z,39.01
2023-05-02T00:30:34.157Z,38.89
2023-05-02T00:33:04.948Z,39.05
2023-05-02T00:35:36.204Z,37.80
2023-05-02T00:38:07.696Z,37.92
2023-05-02T00:40:55.675Z,38.67
2023-05-02T00:43:27.555Z,37.83
2023-05-02T00:45:58.133Z,38.24
2023-05-02T00:48:29.492Z,38.47
2023-05-02T00:51:00.448Z,38.51
2023-05-02T00:53:31.011Z,38.58
2023-05-02T00:56:01.967Z,38.59
2023-05-02T00:58:33.112Z,39.22
2023-05-02T01:01:28.287Z,38.32
2023-05-02T01:04:33.627Z,39.61
2023-05-02T01:07:24.555Z,39.10
2023-05-02T01:10:12.253Z,39.25
2023-05-02T01:12:49.038Z,39.49
2023-05-02T01:15:23.285Z,38.74
2023-05-02T01:17:57.766Z,39.47
2023-05-02T01:20:31.385Z,38.45
2023-05-02T01:23:09.234Z,39.17
2023-05-02T01:26:03.948Z,39.15
2023-05-02T01:28:56.989Z,39.79
2023-05-02T01:31:48.678Z,38.68
2023-05-02T01:34:22.438Z,39.25
2023-05-02T01:36:54.392Z,39.04
2023-05-02T01:39:27.049Z,38.55
2023-05-02T01:42:00.783Z,39.81
2023-05-02T01:44:32.325Z,39.28
2023-05-02T01:47:04.996Z,39.45
2023-05-02T01:49:37.516Z,38.68
2023-05-02T01:52:12.366Z,39.31
2023-05-02T01:54:44.037Z,39.77
2023-05-02T01:57:16.332Z,38.87
2023-05-02T01:59:48.839Z,39.53
2023-05-02T02:02:19.815Z,39.26
2023-05-02T02:04:52.254Z,38.52
2023-05-02T02:07:22.971Z,38.53
2023-05-02T02:09:54.550Z,38.67
2023-05-02T02:12:30.220Z,38.60
2023-05-02T02:15:33.573Z,39.23
2023-05-02T02:18:13.035Z,38.09
2023-05-02T02:20:49.081Z,38.92
2023-05-02T02:23:23.038Z,38.38
2023-05-02T02:25:54.832Z,38.18
2023-05-02T02:28:25.646Z,38.11
2023-05-02T02:30:58.643Z,38.99
2023-05-02T02:33:33.221Z,38.72
2023-05-02T02:36:52.217Z,39.07
2023-05-02T02:39:47.999Z,38.39
2023-05-02T02:43:09.177Z,38.21
2023-05-02T02:46:11.823Z,38.76
2023-05-02T02:48:48.290Z,38.94
2023-05-02T02:52:28.820Z,37.97
2023-05-02T02:55:12.031Z,38.09
2023-05-02T02:58:08.569Z,38.82
2023-05-02T03:00:39.471Z,39.34
2023-05-02T03:03:11.836Z,38.93
2023-05-02T03:05:42.990Z,38.85
2023-05-02T03:08:13.982Z,39.12
2023-05-02T03:10:44.501Z,38.95
2023-05-02T03:13:15.738Z,39.01
2023-05-02T03:16:00.279Z,38.60
2023-05-02T03:18:33.069Z,38.52
2023-05-02T03:21:03.707Z,39.16
2023-05-02T03:23:34.438Z,38.85
2023-05-02T03:26:05.617Z,39.29
2023-05-02T03:28:37.097Z,39.06
2023-05-02T03:31:08.922Z,38.63
2023-05-02T03:33:42.348Z,38.65
2023-05-02T03:36:12.902Z,39.01
2023-05-02T03:38:43.760Z,39.20
2023-05-02T03:41:16.225Z,39.15
2023-05-02T03:43:47.085Z,38.51
2023-05-02T03:46:18.421Z,38.55
2023-05-02T03:48:49.352Z,38.32
2023-05-02T03:51:20.656Z,39.03
2023-05-02T03:53:55.006Z,38.89
2023-05-02T03:56:25.762Z,39.16
2023-05-02T03:59:14.001Z,39.46
2023-05-02T04:01:44.773Z,39.24
2023-05-02T04:04:17.891Z,39.20
2023-05-02T04:06:52.828Z,38.80
2023-05-02T04:09:26.662Z,38.85
2023-05-02T04:12:02.044Z,38.79
2023-05-02T04:14:34.190Z,39.22
2023-05-02T04:17:06.117Z,38.93
2023-05-02T04:19:42.055Z,39.42
2023-05-02T04:22:13.755Z,38.13
2023-05-02T04:24:49.343Z,38.84
2023-05-02T04:27:20.138Z,38.85
2023-05-02T04:29:52.488Z,38.55
2023-05-02T04:32:23.604Z,38.51
2023-05-02T04:34:55.215Z,38.75
2023-05-02T04:37:27.198Z,38.46
2023-05-02T04:39:57.898Z,38.60
2023-05-02T04:42:31.872Z,38.61
2023-05-02T04:45:11.283Z,39.22
2023-05-02T04:47:43.032Z,38.41
2023-05-02T04:50:13.603Z,38.32
2023-05-02T04:52:43.867Z,38.62
2023-05-02T04:55:14.482Z,38.48
2023-05-02T04:57:47.329Z,38.69
2023-05-02T05:00:19.504Z,38.12
2023-05-02T05:02:50.282Z,38.91
2023-05-02T05:05:21.856Z,38.97
2023-05-02T05:07:54.117Z,38.46
2023-05-02T05:10:26.740Z,39.18
2023-05-02T05:12:57.565Z,38.68
2023-05-02T05:15:28.867Z,38.99
2023-05-02T05:18:01.542Z,39.09
2023-05-02T05:20:32.185Z,38.72
2023-05-02T05:23:04.086Z,38.03
2023-05-02T05:25:35.481Z,38.46
2023-05-02T05:28:06.276Z,38.18
2023-05-02T05:30:39.510Z,38.04
2023-05-02T05:33:13.222Z,38.51
2023-05-02T05:35:45.587Z,38.84
2023-05-02T05:38:15.965Z,38.52
2023-05-02T05:40:52.732Z,38.24
2023-05-02T05:43:23.210Z,38.21
2023-05-02T05:45:58.243Z,38.32
2023-05-02T05:48:29.438Z,38.74
2023-05-02T05:51:06.967Z,38.73
2023-05-02T05:53:37.713Z,37.88
2023-05-02T05:56:15.246Z,38.55
2023-05-02T05:58:52.276Z,38.74
2023-05-02T06:01:22.806Z,38.55
2023-05-02T06:03:53.761Z,38.36
2023-05-02T06:06:24.767Z,38.62
2023-05-02T06:08:55.658Z,38.48
2023-05-02T06:11:27.713Z,38.47
2023-05-02T06:13:59.550Z,38.12
2023-05-02T06:16:30.129Z,38.44
2023-05-02T06:19:00.630Z,38.31
2023-05-02T06:21:30.880Z,38.60
2023-05-02T06:24:01.272Z,37.98
2023-05-02T06:26:32.673Z,37.71
2023-05-02T06:29:04.123Z,38.08
2023-05-02T06:31:34.541Z,38.65
2023-05-02T06:34:05.236Z,38.09
2023-05-02T06:36:35.810Z,38.42
2023-05-02T06:39:06.325Z,38.23
2023-05-02T06:41:37.763Z,38.40
2023-05-02T06:44:08.288Z,38.71
2023-05-02T06:46:39.479Z,37.83
2023-05-02T06:49:09.887Z,38.54
2023-05-02T06:51:40.379Z,38.44
2023-05-02T06:54:10.769Z,37.87
2023-05-02T06:56:41.206Z,37.81
2023-05-02T06:59:12.153Z,38.31
2023-05-02T07:01:42.603Z,38.78
2023-05-02T07:04:13.613Z,38.33
2023-05-02T07:06:44.197Z,38.60
2023-05-02T07:09:15.396Z,38.03
2023-05-02T07:11:45.782Z,38.24
2023-05-02T07:14:16.682Z,38.55
2023-05-02T07:16:47.281Z,37.81
2023-05-02T07:19:18.206Z,38.04
2023-05-02T07:21:48.608Z,37.97
2023-05-02T07:24:19.866Z,38.00
2023-05-02T07:26:50.110Z,38.28
2023-05-02T07:29:20.434Z,37.91
2023-05-02T07:31:50.888Z,37.98
2023-05-02T07:34:21.255Z,38.02
2023-05-02T07:36:51.619Z,38.09
2023-05-02T07:39:22.206Z,38.12
2023-05-02T07:41:56.311Z,38.02
2023-05-02T07:44:26.879Z,38.09
2023-05-02T07:46:57.347Z,38.14
2023-05-02T07:49:27.833Z,38.22
2023-05-02T07:51:58.190Z,38.09
2023-05-02T07:54:29.139Z,38.28
2023-05-02T07:57:03.672Z,37.82
2023-05-02T07:59:34.633Z,37.98
2023-05-02T08:02:05.267Z,38.16
2023-05-02T08:04:37.038Z,38.49
2023-05-02T08:07:07.659Z,38.14
2023-05-02T08:09:38.641Z,37.76
2023-05-02T08:12:08.868Z,38.56
2023-05-02T08:14:39.652Z,38.21
2023-05-02T08:17:10.219Z,38.05
2023-05-02T08:19:40.663Z,38.54
2023-05-02T08:22:11.612Z,38.18
2023-05-02T08:24:42.035Z,38.29
2023-05-02T08:27:12.399Z,37.79
2023-05-02T08:29:42.749Z,38.28
2023-05-02T08:32:13.432Z,37.89
2023-05-02T08:34:43.852Z,38.40
2023-05-02T08:37:14.782Z,38.02
2023-05-02T08:39:45.674Z,38.40
2023-05-02T08:42:16.110Z,38.45
2023-05-02T08:44:46.569Z,38.34
2023-05-02T08:47:20.380Z,38.31
2023-05-02T08:49:52.199Z,37.96
2023-05-02T08:52:23.184Z,38.18
2023-05-02T08:54:55.646Z,37.98
2023-05-02T08:57:27.215Z,38.05
2023-05-02T08:59:57.629Z,38.60
2023-05-02T09:02:46.548Z,38.03
2023-05-02T09:05:23.539Z,38.18
2023-05-02T09:07:54.336Z,37.69
2023-05-02T09:10:26.164Z,37.96
2023-05-02T09:12:56.514Z,38.04
2023-05-02T09:15:26.888Z,38.24
2023-05-02T09:17:58.239Z,38.15
2023-05-02T09:20:29.064Z,37.95
2023-05-02T09:22:59.628Z,38.09
2023-05-02T09:25:40.231Z,37.97
2023-05-02T09:28:10.576Z,38.50
2023-05-02T09:30:41.167Z,38.02
2023-05-02T09:33:11.942Z,37.79
2023-05-02T09:35:57.319Z,37.87
2023-05-02T09:38:27.766Z,38.13
2023-05-02T09:40:58.521Z,38.08
2023-05-02T09:43:33.825Z,38.21
2023-05-02T09:46:14.248Z,38.07
2023-05-02T09:49:01.053Z,37.86
2023-05-02T09:51:31.380Z,38.03
2023-05-02T09:54:01.738Z,38.06
2023-05-02T09:56:32.319Z,37.99
2023-05-02T09:59:16.765Z,38.10
2023-05-02T10:01:47.598Z,37.70
2023-05-02T10:04:20.330Z,37.71
2023-05-02T10:06:52.893Z,38.23
2023-05-02T10:09:24.221Z,37.98
2023-05-02T10:11:56.689Z,37.88
2023-05-02T10:14:30.210Z,37.92
2023-05-02T10:17:13.267Z,37.79
2023-05-02T10:19:56.120Z,37.64
2023-05-02T10:22:27.857Z,37.94
2023-05-02T10:25:02.406Z,37.87
2023-05-02T10:27:35.044Z,37.85
2023-05-02T10:30:07.977Z,38.05
2023-05-02T10:32:40.055Z,37.77
2023-05-02T10:35:10.819Z,37.57
2023-05-02T10:37:42.910Z,37.83
2023-05-02T10:40:14.704Z,37.70
2023-05-02T10:42:49.262Z,37.80
2023-05-02T10:45:36.735Z,37.43
2023-05-02T10:48:28.278Z,37.58
2023-05-02T10:51:02.789Z,37.65
2023-05-02T10:53:40.474Z,37.59
2023-05-02T10:56:25.119Z,37.34
2023-05-02T10:59:16.434Z,37.96
2023-05-02T11:01:46.992Z,37.93
2023-05-02T11:04:17.441Z,37.76
2023-05-02T11:07:03.676Z,37.61
2023-05-02T11:09:34.926Z,37.63
2023-05-02T11:12:06.227Z,37.82
2023-05-02T11:14:43.082Z,37.59
2023-05-02T11:17:13.556Z,37.62
2023-05-02T11:20:07.154Z,37.65
2023-05-02T11:22:37.876Z,37.25
2023-05-02T11:25:32.417Z,36.96
2023-05-02T11:28:04.030Z,36.97
2023-05-02T11:30:42.231Z,36.44
2023-05-02T11:33:13.605Z,37.05
2023-05-02T11:35:45.556Z,36.73
2023-05-02T11:38:18.121Z,37.23
2023-05-02T11:40:56.460Z,37.44
2023-05-02T11:43:31.279Z,36.40
2023-05-02T11:46:03.744Z,36.21
2023-05-02T11:48:34.287Z,36.42
2023-05-02T11:51:06.333Z,36.08
2023-05-02T11:53:42.172Z,35.95
2023-05-02T11:56:12.570Z,36.10
2023-05-02T11:58:42.982Z,35.76
2023-05-02T12:01:18.788Z,36.22
2023-05-02T12:03:50.859Z,36.85
2023-05-02T12:06:21.583Z,36.48
2023-05-02T12:08:57.032Z,36.58
2023-05-02T12:11:27.574Z,35.39
2023-05-02T12:13:58.044Z,35.62
2023-05-02T12:16:28.586Z,35.59
2023-05-02T12:19:01.279Z,35.93
2023-05-02T12:21:34.445Z,35.66
2023-05-02T12:24:04.327Z,35.63
2023-05-02T12:26:35.261Z,35.05
2023-05-02T12:29:09.208Z,35.01
2023-05-02T12:31:39.675Z,35.30
2023-05-02T12:34:10.969Z,35.26
2023-05-02T12:36:47.023Z,35.22
2023-05-02T12:39:17.880Z,35.15
2023-05-02T12:41:48.940Z,35.64
2023-05-02T12:44:37.887Z,35.89
2023-05-02T12:47:09.330Z,35.92
2023-05-02T12:49:55.101Z,36.24
2023-05-02T12:53:00.747Z,35.76
2023-05-02T12:55:33.712Z,36.43
2023-05-02T12:58:05.702Z,35.86
2023-05-02T13:00:40.944Z,35.69
2023-05-02T13:03:12.703Z,35.82
2023-05-02T13:05:43.298Z,36.13
2023-05-02T13:08:13.879Z,35.96
2023-05-02T13:10:45.158Z,36.47
2023-05-02T13:13:15.575Z,36.03
2023-05-02T13:15:47.912Z,35.88
2023-05-02T13:18:18.281Z,36.25
2023-05-02T13:20:48.824Z,35.73
2023-05-02T13:23:19.557Z,35.90
2023-05-02T13:25:50.195Z,35.91
2023-05-02T13:28:20.726Z,35.94
2023-05-02T13:30:51.975Z,36.25
2023-05-02T13:33:22.556Z,36.01
2023-05-02T13:35:53.726Z,36.21
2023-05-02T13:38:24.085Z,36.44
2023-05-02T13:40:55.670Z,36.59
2023-05-02T13:43:26.245Z,35.68
2023-05-02T13:46:00.197Z,36.38
2023-05-02T13:48:31.603Z,36.42
2023-05-02T13:51:02.012Z,35.93
2023-05-02T13:53:33.113Z,36.04
2023-05-02T13:56:03.539Z,36.20
2023-05-02T13:58:33.961Z,36.01
2023-05-02T14:01:04.604Z,36.03
2023-05-02T14:03:35.136Z,35.74
2023-05-02T14:06:06.448Z,36.22
2023-05-02T14:08:37.306Z,36.03
2023-05-02T14:11:07.882Z,35.82
2023-05-02T14:13:38.220Z,35.77
2023-05-02T14:16:09.079Z,35.96
2023-05-02T14:18:39.471Z,35.73
2023-05-02T14:21:09.911Z,35.99
2023-05-02T14:23:40.315Z,36.04
2023-05-02T14:26:10.998Z,35.85
2023-05-02T14:28:41.434Z,35.89
2023-05-02T14:31:12.983Z,36.18
2023-05-02T14:33:43.436Z,36.06
2023-05-02T14:36:14.184Z,35.75
2023-05-02T14:38:44.577Z,35.74
2023-05-02T14:41:14.971Z,36.49
2023-05-02T14:43:45.340Z,35.96
2023-05-02T14:46:16.212Z,36.26
2023-05-02T14:48:46.456Z,36.11
2023-05-02T14:51:17.048Z,35.99
2023-05-02T14:53:49.606Z,36.18
2023-05-02T14:56:20.903Z,35.90
2023-05-02T14:58:51.591Z,36.03
2023-05-02T15:01:24.528Z,35.71
2023-05-02T15:04:06.213Z,35.84
2023-05-02T15:06:38.860Z,36.05
2023-05-02T15:09:09.364Z,36.06
2023-05-02T15:11:39.736Z,36.20
2023-05-02T15:14:10.136Z,36.11
2023-05-02T15:16:41.211Z,36.16
2023-05-02T15:19:11.929Z,36.21
2023-05-02T15:21:42.943Z,36.20
2023-05-02T15:24:13.340Z,35.97
2023-05-02T15:26:43.983Z,35.94
2023-05-02T15:29:14.498Z,35.48
2023-05-02T15:31:44.859Z,35.96
2023-05-02T15:34:15.285Z,36.03
2023-05-02T15:36:46.101Z,35.96
2023-05-02T15:39:16.521Z,35.70
2023-05-02T15:41:49.331Z,35.87
2023-05-02T15:44:19.934Z,36.42
2023-05-02T15:46:50.908Z,36.09
2023-05-02T15:49:21.420Z,35.96
2023-05-02T15:51:52.332Z,35.98
2023-05-02T15:54:22.542Z,36.38
2023-05-02T15:56:53.113Z,35.99
2023-05-02T15:59:23.481Z,36.37
2023-05-02T16:01:54.053Z,35.86
2023-05-02T16:04:24.556Z,36.33
2023-05-02T16:06:55.130Z,36.09
2023-05-02T16:09:25.688Z,36.22
2023-05-02T16:11:56.166Z,36.38
2023-05-02T16:14:27.671Z,36.38
2023-05-02T16:17:01.441Z,36.26
2023-05-02T16:19:32.226Z,36.40
2023-05-02T16:22:02.686Z,35.98
2023-05-02T16:24:33.040Z,36.13
2023-05-02T16:27:03.410Z,36.21
2023-05-02T16:29:33.779Z,36.17
2023-05-02T16:32:04.229Z,36.20
2023-05-02T16:34:35.023Z,36.07
2023-05-02T16:37:05.693Z,36.17
2023-05-02T16:39:36.541Z,35.99
2023-05-02T16:42:07.213Z,35.93
2023-05-02T16:44:37.625Z,36.46
2023-05-02T16:47:10.197Z,36.07
2023-05-02T16:49:40.948Z,36.56
2023-05-02T16:52:11.465Z,35.95
2023-05-02T16:54:41.872Z,35.90
2023-05-02T16:57:12.369Z,36.23
2023-05-02T16:59:42.840Z,36.49
2023-05-02T17:02:13.258Z,36.74
2023-05-02T17:04:44.580Z,36.38
2023-05-02T17:07:14.936Z,36.66
2023-05-02T17:09:46.053Z,36.05
2023-05-02T17:12:17.216Z,36.26
2023-05-02T17:14:47.634Z,36.31
2023-05-02T17:17:20.307Z,35.89
2023-05-02T17:19:50.935Z,36.32
2023-05-02T17:22:21.600Z,35.92
2023-05-02T17:24:54.371Z,36.17
2023-05-02T17:27:24.715Z,35.85
2023-05-02T17:29:55.169Z,35.87
2023-05-02T17:32:25.869Z,36.32
2023-05-02T17:34:58.294Z,36.11
2023-05-02T17:37:30.315Z,36.48
2023-05-02T17:40:03.638Z,36.25
2023-05-02T17:42:35.610Z,36.37
2023-05-02T17:45:06.520Z,36.52
2023-05-02T17:47:36.966Z,35.97
2023-05-02T17:50:09.260Z,36.35
2023-05-02T17:52:40.309Z,36.02
2023-05-02T17:55:11.042Z,36.19
2023-05-02T17:57:42.043Z,36.02
2023-05-02T18:00:13.039Z,36.21
2023-05-02T18:02:44.134Z,36.03
2023-05-02T18:05:14.742Z,36.28
2023-05-02T18:07:45.451Z,35.96
2023-05-02T18:10:15.971Z,36.12
2023-05-02T18:12:47.035Z,35.93
2023-05-02T18:15:18.065Z,36.06
2023-05-02T18:17:48.463Z,36.77
2023-05-02T18:20:18.967Z,36.28
2023-05-02T18:22:49.438Z,36.17
2023-05-02T18:25:20.363Z,36.13
2023-05-02T18:27:50.785Z,36.27
2023-05-02T18:30:21.655Z,36.12
2023-05-02T18:32:52.521Z,36.25
2023-05-02T18:35:23.129Z,36.02
2023-05-02T18:37:54.006Z,37.04
2023-05-02T18:40:24.648Z,36.42
2023-05-02T18:42:54.992Z,36.64
2023-05-02T18:45:25.168Z,36.44
2023-05-02T18:47:56.149Z,36.88
2023-05-02T18:50:27.926Z,36.75
2023-05-02T18:52:58.470Z,36.96
2023-05-02T18:55:29.035Z,36.48
2023-05-02T18:58:00.134Z,36.29
2023-05-02T19:00:34.389Z,36.25
2023-05-02T19:03:06.976Z,37.18
2023-05-02T19:05:37.524Z,36.94
2023-05-02T19:08:08.652Z,37.01
2023-05-02T19:10:39.113Z,36.52
2023-05-02T19:13:09.374Z,36.32
2023-05-02T19:15:40.459Z,36.87
2023-05-02T19:18:10.953Z,36.43
2023-05-02T19:20:41.528Z,36.75
2023-05-02T19:23:19.680Z,36.95
2023-05-02T19:25:50.962Z,37.07
2023-05-02T19:28:21.302Z,36.66
2023-05-02T19:30:52.949Z,36.55
2023-05-02T19:33:23.379Z,36.74
2023-05-02T19:35:55.612Z,36.67
2023-05-02T19:38:26.002Z,37.02
2023-05-02T19:40:57.264Z,36.70
2023-05-02T19:43:27.653Z,37.29
2023-05-02T19:45:59.012Z,36.94
2023-05-02T19:48:29.900Z,37.22
2023-05-02T19:51:05.298Z,37.22
2023-05-02T19:53:38.308Z,37.27
2023-05-02T19:56:12.015Z,36.90
2023-05-02T19:58:42.355Z,36.74
2023-05-02T20:01:12.726Z,37.02
2023-05-02T20:03:43.235Z,37.33
2023-05-02T20:06:13.676Z,37.33
2023-05-02T20:08:44.086Z,37.50
2023-05-02T20:11:15.028Z,37.40
2023-05-02T20:13:47.342Z,37.08
2023-05-02T20:16:17.984Z,37.05
2023-05-02T20:18:49.212Z,37.15
2023-05-02T20:21:19.579Z,36.84
2023-05-02T20:23:49.967Z,37.14
2023-05-02T20:26:20.591Z,37.62
2023-05-02T20:28:51.082Z,37.04
2023-05-02T20:31:21.468Z,37.44
2023-05-02T20:33:52.075Z,37.46
2023-05-02T20:36:23.116Z,37.27
2023-05-02T20:38:53.509Z,37.26
2023-05-02T20:41:25.392Z,37.50
2023-05-02T20:43:58.570Z,36.92
2023-05-02T20:46:28.462Z,36.80
2023-05-02T20:49:00.862Z,37.53
2023-05-02T20:51:32.645Z,37.28
2023-05-02T20:54:03.129Z,37.46
2023-05-02T20:56:34.127Z,37.52
2023-05-02T20:59:04.497Z,37.82
2023-05-02T21:01:35.043Z,37.79
2023-05-02T21:04:06.034Z,37.19
2023-05-02T21:06:37.143Z,36.98
2023-05-02T21:09:10.658Z,37.65
2023-05-02T21:11:41.016Z,37.53
2023-05-02T21:14:11.634Z,37.37
2023-05-02T21:16:41.966Z,37.60
2023-05-02T21:19:12.451Z,37.55
2023-05-02T21:21:42.829Z,37.73
2023-05-02T21:24:13.311Z,37.77
2023-05-02T21:26:44.162Z,37.67
2023-05-02T21:29:16.456Z,37.39
2023-05-02T21:31:48.406Z,37.55
2023-05-02T21:34:19.907Z,38.03
2023-05-02T21:36:50.328Z,37.61
2023-05-02T21:39:22.308Z,38.25
2023-05-02T21:41:52.745Z,37.65
2023-05-02T21:44:23.258Z,37.97
2023-05-02T21:46:53.619Z,37.77
2023-05-02T21:49:24.472Z,38.01
2023-05-02T21:51:54.829Z,38.01
2023-05-02T21:54:25.351Z,38.00
2023-05-02T21:56:56.269Z,37.85
2023-05-02T21:59:26.686Z,38.41
2023-05-02T22:01:57.232Z,38.29
2023-05-02T22:04:28.115Z,38.56
2023-05-02T22:06:59.077Z,38.49
2023-05-02T22:09:30.768Z,38.13
2023-05-02T22:12:02.696Z,38.57
2023-05-02T22:14:41.463Z,38.74
2023-05-02T22:17:18.779Z,38.87
2023-05-02T22:19:55.133Z,38.91
2023-05-02T22:22:25.743Z,38.66
2023-05-02T22:24:56.190Z,38.92
2023-05-02T22:27:26.707Z,38.43
2023-05-02T22:29:57.799Z,38.75
2023-05-02T22:32:28.389Z,39.33
2023-05-02T22:34:59.248Z,39.33
2023-05-02T22:37:29.725Z,39.33
2023-05-02T22:40:00.524Z,39.30
2023-05-02T22:42:30.995Z,39.09
2023-05-02T22:45:02.237Z,38.73
2023-05-02T22:47:33.849Z,38.96
2023-05-02T22:50:06.500Z,38.84
2023-05-02T22:52:39.410Z,39.15
2023-05-02T22:55:14.394Z,39.16
2023-05-02T22:57:44.916Z,39.32
2023-05-02T23:00:15.718Z,38.97
2023-05-02T23:02:46.790Z,39.34
2023-05-02T23:05:18.078Z,39.54
2023-05-02T23:07:50.001Z,39.07
2023-05-02T23:10:20.511Z,39.42
2023-05-02T23:12:51.130Z,39.21
2023-05-02T23:15:22.417Z,39.40
2023-05-02T23:17:53.307Z,39.47
2023-05-02T23:20:24.680Z,39.39
2023-05-02T23:22:55.041Z,38.91
2023-05-02T23:25:28.553Z,39.10
2023-05-02T23:27:59.229Z,39.34
2023-05-02T23:30:31.207Z,39.34
2023-05-02T23:33:02.444Z,39.55
2023-05-02T23:35:34.147Z,39.78
2023-05-02T23:38:09.322Z,39.81
2023-05-02T23:40:40.386Z,39.33
2023-05-02T23:43:11.705Z,39.24
2023-05-02T23:45:42.482Z,39.37
2023-05-02T23:48:12.860Z,39.74
2023-05-02T23:50:44.298Z,39.32
2023-05-02T23:53:14.742Z,39.36
2023-05-02T23:55:45.164Z,39.80
2023-05-02T23:58:15.578Z,39.87
